sensor_id;sensor_type;location;lat;lon;timestamp;temperature;humidity
38604;DHT22;24924;50.054;8.790;2022-07-05T05:07:04;16.10;99.90
38604;DHT22;24924;50.054;8.790;2022-07-05T05:09:30;16.30;99.90
38604;DHT22;24924;50.054;8.790;2022-07-05T05:11:55;16.40;99.90
38604;DHT22;24924;50.054;8.790;2022-07-05T05:14:21;16.50;99.90
38604;DHT22;24924;50.054;8.790;2022-07-05T05:16:47;16.50;99.90
38604;DHT22;24924;50.054;8.790;2022-07-05T05:19:13;16.60;99.90
38604;DHT22;24924;50.054;8.790;2022-07-05T05:21:39;16.70;99.90
38604;DHT22;24924;50.054;8.790;2022-07-05T05:24:05;16.80;99.90
38604;DHT22;24924;50.054;8.790;2022-07-05T05:26:31;17.00;99.90
38604;DHT22;24924;50.054;8.790;2022-07-05T05:28:57;17.00;99.90
38604;DHT22;24924;50.054;8.790;2022-07-05T05:31:23;17.00;99.90
38604;DHT22;24924;50.054;8.790;2022-07-05T05:33:49;17.10;99.90
38604;DHT22;24924;50.054;8.790;2022-07-05T05:36:15;17.20;99.90
38604;DHT22;24924;50.054;8.790;2022-07-05T05:38:40;17.30;99.90
38604;DHT22;24924;50.054;8.790;2022-07-05T05:41:06;17.30;99.90
38604;DHT22;24924;50.054;8.790;2022-07-05T05:43:32;17.40;99.90
38604;DHT22;24924;50.054;8.790;2022-07-05T05:45:58;17.40;99.90
38604;DHT22;24924;50.054;8.790;2022-07-05T05:48:24;17.40;99.90
38604;DHT22;24924;50.054;8.790;2022-07-05T05:50:50;17.50;99.90
38604;DHT22;24924;50.054;8.790;2022-07-05T05:53:17;17.60;99.90
38604;DHT22;24924;50.054;8.790;2022-07-05T05:55:43;17.60;99.90
38604;DHT22;24924;50.054;8.790;2022-07-05T05:58:15;17.60;99.90
38604;DHT22;24924;50.054;8.790;2022-07-05T06:00:42;17.80;99.90
38604;DHT22;24924;50.054;8.790;2022-07-05T06:03:09;17.90;99.90
38604;DHT22;24924;50.054;8.790;2022-07-05T06:05:35;18.00;99.90
38604;DHT22;24924;50.054;8.790;2022-07-05T06:08:01;18.10;99.90
38604;DHT22;24924;50.054;8.790;2022-07-05T06:10:29;18.40;99.90
38604;DHT22;24924;50.054;8.790;2022-07-05T06:12:58;18.50;99.90
38604;DHT22;24924;50.054;8.790;2022-07-05T06:15:24;18.60;99.90
38604;DHT22;24924;50.054;8.790;2022-07-05T06:17:50;18.70;99.90
38604;DHT22;24924;50.054;8.790;2022-07-05T06:20:18;18.70;99.90
38604;DHT22;24924;50.054;8.790;2022-07-05T06:22:44;18.80;99.90
38604;DHT22;24924;50.054;8.790;2022-07-05T06:25:10;19.00;99.90
38604;DHT22;24924;50.054;8.790;2022-07-05T06:27:48;19.00;99.90
38604;DHT22;24924;50.054;8.790;2022-07-05T06:30:17;19.10;99.90
38604;DHT22;24924;50.054;8.790;2022-07-05T06:32:43;19.10;99.90
38604;DHT22;24924;50.054;8.790;2022-07-05T06:35:10;19.20;99.90
38604;DHT22;24924;50.054;8.790;2022-07-05T06:37:51;19.40;99.90
38604;DHT22;24924;50.054;8.790;2022-07-05T06:40:24;19.40;99.90
38604;DHT22;24924;50.054;8.790;2022-07-05T06:42:51;19.50;99.90
38604;DHT22;24924;50.054;8.790;2022-07-05T06:45:21;19.70;99.90
38604;DHT22;24924;50.054;8.790;2022-07-05T06:48:04;19.70;99.90
38604;DHT22;24924;50.054;8.790;2022-07-05T06:50:32;19.90;99.90
38604;DHT22;24924;50.054;8.790;2022-07-05T06:52:58;19.90;99.90
38604;DHT22;24924;50.054;8.790;2022-07-05T06:55:24;20.10;99.90
38604;DHT22;24924;50.054;8.790;2022-07-05T06:58:00;20.10;99.90
38604;DHT22;24924;50.054;8.790;2022-07-05T07:00:26;20.20;99.90
38604;DHT22;24924;50.054;8.790;2022-07-05T07:02:53;20.30;99.90
38604;DHT22;24924;50.054;8.790;2022-07-05T07:05:18;20.40;99.90
38604;DHT22;24924;50.054;8.790;2022-07-05T07:07:45;20.50;99.90
38604;DHT22;24924;50.054;8.790;2022-07-05T07:10:29;20.60;99.90
38604;DHT22;24924;50.054;8.790;2022-07-05T07:12:56;20.90;99.90
38604;DHT22;24924;50.054;8.790;2022-07-05T07:15:22;21.00;99.90
38604;DHT22;24924;50.054;8.790;2022-07-05T07:17:47;21.10;99.90
38604;DHT22;24924;50.054;8.790;2022-07-05T07:20:13;21.20;99.90
38604;DHT22;24924;50.054;8.790;2022-07-05T07:22:39;21.30;99.90
38604;DHT22;24924;50.054;8.790;2022-07-05T07:25:05;21.50;99.90
38604;DHT22;24924;50.054;8.790;2022-07-05T07:27:44;21.60;99.90
38604;DHT22;24924;50.054;8.790;2022-07-05T07:30:12;21.90;99.50
38604;DHT22;24924;50.054;8.790;2022-07-05T07:32:38;21.80;99.70
38604;DHT22;24924;50.054;8.790;2022-07-05T07:35:04;22.00;99.90
38604;DHT22;24924;50.054;8.790;2022-07-05T07:37:30;22.00;99.90
38604;DHT22;24924;50.054;8.790;2022-07-05T07:39:55;22.20;99.00
38604;DHT22;24924;50.054;8.790;2022-07-05T07:42:21;22.20;99.90
38604;DHT22;24924;50.054;8.790;2022-07-05T07:44:47;22.40;99.50
38604;DHT22;24924;50.054;8.790;2022-07-05T07:47:13;22.40;98.50
38604;DHT22;24924;50.054;8.790;2022-07-05T07:49:39;22.60;97.80
38604;DHT22;24924;50.054;8.790;2022-07-05T07:52:06;22.60;98.80
38604;DHT22;24924;50.054;8.790;2022-07-05T07:54:32;22.70;99.00
38604;DHT22;24924;50.054;8.790;2022-07-05T07:56:58;22.90;97.30
38604;DHT22;24924;50.054;8.790;2022-07-05T07:59:25;23.20;96.30
38604;DHT22;24924;50.054;8.790;2022-07-05T08:01:51;23.30;95.40
38604;DHT22;24924;50.054;8.790;2022-07-05T08:04:17;23.30;97.60
38604;DHT22;24924;50.054;8.790;2022-07-05T08:06:44;23.30;97.90
38604;DHT22;24924;50.054;8.790;2022-07-05T08:09:10;23.50;96.60
38604;DHT22;24924;50.054;8.790;2022-07-05T08:11:36;23.50;94.60
38604;DHT22;24924;50.054;8.790;2022-07-05T08:14:02;23.40;94.10
38604;DHT22;24924;50.054;8.790;2022-07-05T08:16:28;23.60;95.40
38604;DHT22;24924;50.054;8.790;2022-07-05T08:18:53;23.80;95.50
38604;DHT22;24924;50.054;8.790;2022-07-05T08:21:38;24.00;95.50
38604;DHT22;24924;50.054;8.790;2022-07-05T08:24:08;24.10;93.90
38604;DHT22;24924;50.054;8.790;2022-07-05T08:26:35;24.20;94.90
38604;DHT22;24924;50.054;8.790;2022-07-05T08:29:03;24.10;93.60
38604;DHT22;24924;50.054;8.790;2022-07-05T08:31:32;24.30;92.90
38604;DHT22;24924;50.054;8.790;2022-07-05T08:33:59;24.20;92.10
38604;DHT22;24924;50.054;8.790;2022-07-05T08:36:25;24.20;93.00
38604;DHT22;24924;50.054;8.790;2022-07-05T08:38:51;24.60;92.90
38604;DHT22;24924;50.054;8.790;2022-07-05T08:41:19;24.60;92.90
38604;DHT22;24924;50.054;8.790;2022-07-05T08:43:47;25.00;92.40
38604;DHT22;24924;50.054;8.790;2022-07-05T08:46:15;24.90;91.50
38604;DHT22;24924;50.054;8.790;2022-07-05T08:48:43;25.00;92.20
38604;DHT22;24924;50.054;8.790;2022-07-05T08:51:17;24.80;92.30
38604;DHT22;24924;50.054;8.790;2022-07-05T08:53:44;24.90;91.40
38604;DHT22;24924;50.054;8.790;2022-07-05T08:56:12;25.30;92.60
38604;DHT22;24924;50.054;8.790;2022-07-05T08:58:38;25.60;90.80
38604;DHT22;24924;50.054;8.790;2022-07-05T09:01:06;25.80;91.20
38604;DHT22;24924;50.054;8.790;2022-07-05T09:03:33;25.70;90.70
38604;DHT22;24924;50.054;8.790;2022-07-05T09:06:06;25.90;90.70
38604;DHT22;24924;50.054;8.790;2022-07-05T09:08:38;25.80;91.50
38604;DHT22;24924;50.054;8.790;2022-07-05T09:11:07;25.80;90.70
38604;DHT22;24924;50.054;8.790;2022-07-05T09:13:36;25.60;90.70
38604;DHT22;24924;50.054;8.790;2022-07-05T09:16:02;25.30;91.90
38604;DHT22;24924;50.054;8.790;2022-07-05T09:18:48;24.90;91.60
38604;DHT22;24924;50.054;8.790;2022-07-05T09:23:41;25.00;88.80
38604;DHT22;24924;50.054;8.790;2022-07-05T09:26:08;24.70;88.40
38604;DHT22;24924;50.054;8.790;2022-07-05T09:28:34;24.50;89.00
38604;DHT22;24924;50.054;8.790;2022-07-05T09:31:00;24.70;87.30
38604;DHT22;24924;50.054;8.790;2022-07-05T09:33:26;24.90;90.00
38604;DHT22;24924;50.054;8.790;2022-07-05T09:35:56;25.20;87.60
38604;DHT22;24924;50.054;8.790;2022-07-05T09:38:24;25.60;86.60
38604;DHT22;24924;50.054;8.790;2022-07-05T09:40:52;26.00;84.70
38604;DHT22;24924;50.054;8.790;2022-07-05T09:43:20;26.50;85.90
38604;DHT22;24924;50.054;8.790;2022-07-05T09:48:22;26.90;83.60
38604;DHT22;24924;50.054;8.790;2022-07-05T09:50:49;27.00;86.10
38604;DHT22;24924;50.054;8.790;2022-07-05T09:53:18;27.20;88.40
38604;DHT22;24924;50.054;8.790;2022-07-05T09:56:02;27.40;85.30
38604;DHT22;24924;50.054;8.790;2022-07-05T09:58:29;27.40;83.90
38604;DHT22;24924;50.054;8.790;2022-07-05T10:00:55;27.10;80.70
38604;DHT22;24924;50.054;8.790;2022-07-05T10:03:21;26.90;82.10
38604;DHT22;24924;50.054;8.790;2022-07-05T10:05:46;27.00;82.20
38604;DHT22;24924;50.054;8.790;2022-07-05T10:08:12;27.10;82.20
38604;DHT22;24924;50.054;8.790;2022-07-05T10:10:41;27.20;81.00
38604;DHT22;24924;50.054;8.790;2022-07-05T10:13:08;27.50;81.70
38604;DHT22;24924;50.054;8.790;2022-07-05T10:15:35;27.30;79.40
38604;DHT22;24924;50.054;8.790;2022-07-05T10:18:06;26.90;77.70
38604;DHT22;24924;50.054;8.790;2022-07-05T10:23:16;26.60;79.20
38604;DHT22;24924;50.054;8.790;2022-07-05T10:25:45;26.80;80.00
38604;DHT22;24924;50.054;8.790;2022-07-05T10:28:19;27.40;81.10
38604;DHT22;24924;50.054;8.790;2022-07-05T10:30:46;27.80;76.50
38604;DHT22;24924;50.054;8.790;2022-07-05T10:33:18;27.80;77.70
38604;DHT22;24924;50.054;8.790;2022-07-05T10:35:46;27.70;76.00
38604;DHT22;24924;50.054;8.790;2022-07-05T10:38:12;27.70;77.50
38604;DHT22;24924;50.054;8.790;2022-07-05T10:40:41;27.60;73.30
38604;DHT22;24924;50.054;8.790;2022-07-05T10:43:08;27.90;77.80
38604;DHT22;24924;50.054;8.790;2022-07-05T10:53:58;26.90;78.30
38604;DHT22;24924;50.054;8.790;2022-07-05T10:56:14;27.10;78.50
38604;DHT22;24924;50.054;8.790;2022-07-05T10:58:44;27.20;77.40
38604;DHT22;24924;50.054;8.790;2022-07-05T11:06:25;27.40;73.90
38604;DHT22;24924;50.054;8.790;2022-07-05T11:13:56;27.60;74.80
38604;DHT22;24924;50.054;8.790;2022-07-05T11:16:26;27.70;74.30
38604;DHT22;24924;50.054;8.790;2022-07-05T11:19:03;27.50;75.20
38604;DHT22;24924;50.054;8.790;2022-07-05T11:21:29;27.50;74.50
38604;DHT22;24924;50.054;8.790;2022-07-05T11:24:19;27.30;76.30
38604;DHT22;24924;50.054;8.790;2022-07-05T11:26:46;27.20;77.40
38604;DHT22;24924;50.054;8.790;2022-07-05T11:32:09;27.70;76.40
38604;DHT22;24924;50.054;8.790;2022-07-05T11:34:36;28.00;78.50
38604;DHT22;24924;50.054;8.790;2022-07-05T11:42:47;27.50;73.90
38604;DHT22;24924;50.054;8.790;2022-07-05T11:45:13;27.30;77.30
38604;DHT22;24924;50.054;8.790;2022-07-05T11:47:40;27.10;75.20
38604;DHT22;24924;50.054;8.790;2022-07-05T11:50:08;26.90;77.20
38604;DHT22;24924;50.054;8.790;2022-07-05T11:52:35;26.90;73.90
38604;DHT22;24924;50.054;8.790;2022-07-05T11:55:04;26.80;77.10
38604;DHT22;24924;50.054;8.790;2022-07-05T11:57:31;26.90;77.20
38604;DHT22;24924;50.054;8.790;2022-07-05T11:59:56;26.80;73.60
38604;DHT22;24924;50.054;8.790;2022-07-05T12:02:22;26.90;75.30
38604;DHT22;24924;50.054;8.790;2022-07-05T12:04:52;27.20;76.00
38604;DHT22;24924;50.054;8.790;2022-07-05T12:07:32;27.00;73.20
38604;DHT22;24924;50.054;8.790;2022-07-05T12:10:00;26.90;74.40
38604;DHT22;24924;50.054;8.790;2022-07-05T12:12:45;27.10;75.20
38604;DHT22;24924;50.054;8.790;2022-07-05T12:15:20;26.90;77.90
38604;DHT22;24924;50.054;8.790;2022-07-05T12:17:50;26.60;75.50
38604;DHT22;24924;50.054;8.790;2022-07-05T12:20:22;26.70;75.80
38604;DHT22;24924;50.054;8.790;2022-07-05T12:22:49;27.50;73.90
38604;DHT22;24924;50.054;8.790;2022-07-05T12:25:20;27.80;74.20
38604;DHT22;24924;50.054;8.790;2022-07-05T12:27:47;28.20;73.50
38604;DHT22;24924;50.054;8.790;2022-07-05T12:30:14;27.90;74.70
38604;DHT22;24924;50.054;8.790;2022-07-05T12:33:03;28.00;73.40
38604;DHT22;24924;50.054;8.790;2022-07-05T12:35:40;27.90;75.20
38604;DHT22;24924;50.054;8.790;2022-07-05T12:38:14;27.40;73.80
38604;DHT22;24924;50.054;8.790;2022-07-05T12:40:43;27.00;74.30
38604;DHT22;24924;50.054;8.790;2022-07-05T12:43:10;27.00;73.50
38604;DHT22;24924;50.054;8.790;2022-07-05T12:45:37;27.00;73.50
38604;DHT22;24924;50.054;8.790;2022-07-05T12:48:06;27.00;72.60
38604;DHT22;24924;50.054;8.790;2022-07-05T12:50:52;26.90;73.30
38604;DHT22;24924;50.054;8.790;2022-07-05T12:53:20;26.90;77.90
38604;DHT22;24924;50.054;8.790;2022-07-05T12:56:06;26.80;72.70
38604;DHT22;24924;50.054;8.790;2022-07-05T12:58:53;27.30;73.50
38604;DHT22;24924;50.054;8.790;2022-07-05T13:01:30;27.50;70.80
38604;DHT22;24924;50.054;8.790;2022-07-05T13:04:13;27.30;71.30
38604;DHT22;24924;50.054;8.790;2022-07-05T13:06:49;27.40;73.00
38604;DHT22;24924;50.054;8.790;2022-07-05T13:09:36;27.50;74.90
38604;DHT22;24924;50.054;8.790;2022-07-05T13:12:19;28.20;73.50
38604;DHT22;24924;50.054;8.790;2022-07-05T13:14:52;28.60;69.20
38604;DHT22;24924;50.054;8.790;2022-07-05T13:17:22;29.20;72.30
38604;DHT22;24924;50.054;8.790;2022-07-05T13:19:50;28.70;68.70
38604;DHT22;24924;50.054;8.790;2022-07-05T13:22:17;28.50;72.80
38604;DHT22;24924;50.054;8.790;2022-07-05T13:24:44;28.00;68.60
38604;DHT22;24924;50.054;8.790;2022-07-05T13:27:11;28.00;70.00
38604;DHT22;24924;50.054;8.790;2022-07-05T13:29:38;27.90;69.20
38604;DHT22;24924;50.054;8.790;2022-07-05T13:32:05;28.30;69.10
38604;DHT22;24924;50.054;8.790;2022-07-05T13:34:31;28.70;68.70
38604;DHT22;24924;50.054;8.790;2022-07-05T13:36:57;29.10;69.60
38604;DHT22;24924;50.054;8.790;2022-07-05T13:39:24;29.00;67.70
38604;DHT22;24924;50.054;8.790;2022-07-05T13:41:52;29.30;68.80
38604;DHT22;24924;50.054;8.790;2022-07-05T13:44:18;29.10;68.30
38604;DHT22;24924;50.054;8.790;2022-07-05T13:46:44;28.70;68.80
38604;DHT22;24924;50.054;8.790;2022-07-05T13:49:10;28.90;70.10
38604;DHT22;24924;50.054;8.790;2022-07-05T13:51:36;28.60;70.50
38604;DHT22;24924;50.054;8.790;2022-07-05T13:54:03;28.60;68.40
38604;DHT22;24924;50.054;8.790;2022-07-05T13:56:29;28.80;67.70
38604;DHT22;24924;50.054;8.790;2022-07-05T13:58:58;28.70;69.50
38604;DHT22;24924;50.054;8.790;2022-07-05T14:01:24;28.40;73.00
38604;DHT22;24924;50.054;8.790;2022-07-05T14:03:55;28.10;70.10
38604;DHT22;24924;50.054;8.790;2022-07-05T14:06:22;27.90;69.30
38604;DHT22;24924;50.054;8.790;2022-07-05T14:08:48;27.60;71.00
38604;DHT22;24924;50.054;8.790;2022-07-05T14:11:14;27.50;67.40
38604;DHT22;24924;50.054;8.790;2022-07-05T14:13:40;27.50;68.30
38604;DHT22;24924;50.054;8.790;2022-07-05T14:16:06;27.70;67.20
38604;DHT22;24924;50.054;8.790;2022-07-05T14:18:32;27.80;66.90
38604;DHT22;24924;50.054;8.790;2022-07-05T14:20:58;28.60;66.20
38604;DHT22;24924;50.054;8.790;2022-07-05T14:23:24;29.20;65.70
38604;DHT22;24924;50.054;8.790;2022-07-05T14:25:49;28.60;66.90
38604;DHT22;24924;50.054;8.790;2022-07-05T14:28:15;28.70;67.10
38604;DHT22;24924;50.054;8.790;2022-07-05T14:30:43;28.90;65.80
38604;DHT22;24924;50.054;8.790;2022-07-05T14:33:10;29.20;64.90
38604;DHT22;24924;50.054;8.790;2022-07-05T14:35:36;29.60;65.90
38604;DHT22;24924;50.054;8.790;2022-07-05T14:38:03;29.70;64.50
38604;DHT22;24924;50.054;8.790;2022-07-05T14:40:30;30.10;67.20
38604;DHT22;24924;50.054;8.790;2022-07-05T14:42:57;30.70;67.70
38604;DHT22;24924;50.054;8.790;2022-07-05T14:45:24;30.10;65.30
38604;DHT22;24924;50.054;8.790;2022-07-05T14:47:51;29.90;64.70
38604;DHT22;24924;50.054;8.790;2022-07-05T14:50:17;29.50;68.20
38604;DHT22;24924;50.054;8.790;2022-07-05T14:52:45;29.60;66.00
38604;DHT22;24924;50.054;8.790;2022-07-05T14:55:10;29.80;64.50
38604;DHT22;24924;50.054;8.790;2022-07-05T14:57:37;29.40;64.10
38604;DHT22;24924;50.054;8.790;2022-07-05T15:00:05;29.20;63.00
38604;DHT22;24924;50.054;8.790;2022-07-05T15:02:32;28.80;64.00
38604;DHT22;24924;50.054;8.790;2022-07-05T15:04:58;28.60;65.00
38604;DHT22;24924;50.054;8.790;2022-07-05T15:07:24;28.40;64.90
38604;DHT22;24924;50.054;8.790;2022-07-05T15:09:50;28.10;65.40
38604;DHT22;24924;50.054;8.790;2022-07-05T15:12:16;28.20;66.10
38604;DHT22;24924;50.054;8.790;2022-07-05T15:14:43;28.10;65.90
38604;DHT22;24924;50.054;8.790;2022-07-05T15:17:10;27.70;66.20
38604;DHT22;24924;50.054;8.790;2022-07-05T15:19:36;27.50;66.70
38604;DHT22;24924;50.054;8.790;2022-07-05T15:22:02;27.50;70.30
38604;DHT22;24924;50.054;8.790;2022-07-05T15:24:28;28.40;68.60
38604;DHT22;24924;50.054;8.790;2022-07-05T15:26:54;29.20;67.40
38604;DHT22;24924;50.054;8.790;2022-07-05T15:29:20;29.40;67.20
38604;DHT22;24924;50.054;8.790;2022-07-05T15:31:45;30.40;67.50
38604;DHT22;24924;50.054;8.790;2022-07-05T15:34:12;31.30;66.20
38604;DHT22;24924;50.054;8.790;2022-07-05T15:36:38;32.00;65.00
38604;DHT22;24924;50.054;8.790;2022-07-05T15:39:05;32.30;64.70
38604;DHT22;24924;50.054;8.790;2022-07-05T15:41:32;32.50;64.50
38604;DHT22;24924;50.054;8.790;2022-07-05T15:43:59;32.40;61.10
38604;DHT22;24924;50.054;8.790;2022-07-05T15:46:25;31.80;61.70
38604;DHT22;24924;50.054;8.790;2022-07-05T15:48:51;31.60;61.50
38604;DHT22;24924;50.054;8.790;2022-07-05T15:51:19;31.40;61.40
38604;DHT22;24924;50.054;8.790;2022-07-05T15:53:45;30.40;63.30
38604;DHT22;24924;50.054;8.790;2022-07-05T15:56:12;30.10;64.40
38604;DHT22;24924;50.054;8.790;2022-07-05T15:58:38;30.20;64.20
38604;DHT22;24924;50.054;8.790;2022-07-05T16:01:06;30.40;65.80
38604;DHT22;24924;50.054;8.790;2022-07-05T16:03:31;31.30;65.30
38604;DHT22;24924;50.054;8.790;2022-07-05T16:06:03;32.20;63.60
38604;DHT22;24924;50.054;8.790;2022-07-05T16:08:29;32.70;62.60
38604;DHT22;24924;50.054;8.790;2022-07-05T16:10:55;33.00;62.50
38604;DHT22;24924;50.054;8.790;2022-07-05T16:13:22;33.50;62.00
38604;DHT22;24924;50.054;8.790;2022-07-05T16:15:48;34.20;61.80
38604;DHT22;24924;50.054;8.790;2022-07-05T16:18:32;34.30;62.60
38604;DHT22;24924;50.054;8.790;2022-07-05T16:20:58;35.50;60.40
38604;DHT22;24924;50.054;8.790;2022-07-05T16:23:28;35.50;60.40
38604;DHT22;24924;50.054;8.790;2022-07-05T16:25:53;35.90;59.20
38604;DHT22;24924;50.054;8.790;2022-07-05T16:28:20;36.00;58.70
38604;DHT22;24924;50.054;8.790;2022-07-05T16:30:46;36.00;60.00
38604;DHT22;24924;50.054;8.790;2022-07-05T16:33:12;34.90;60.20
38604;DHT22;24924;50.054;8.790;2022-07-05T16:35:37;34.50;59.90
38604;DHT22;24924;50.054;8.790;2022-07-05T16:38:03;33.40;61.70
38604;DHT22;24924;50.054;8.790;2022-07-05T16:40:29;32.70;62.20
38604;DHT22;24924;50.054;8.790;2022-07-05T16:42:55;32.30;63.90
38604;DHT22;24924;50.054;8.790;2022-07-05T16:45:20;32.60;63.00
38604;DHT22;24924;50.054;8.790;2022-07-05T16:47:46;32.60;62.90
38604;DHT22;24924;50.054;8.790;2022-07-05T16:50:12;32.60;64.10
38604;DHT22;24924;50.054;8.790;2022-07-05T16:52:38;32.90;62.20
38604;DHT22;24924;50.054;8.790;2022-07-05T16:55:05;32.20;63.50
38604;DHT22;24924;50.054;8.790;2022-07-05T16:57:31;31.50;64.10
38604;DHT22;24924;50.054;8.790;2022-07-05T16:59:57;30.60;65.30
38604;DHT22;24924;50.054;8.790;2022-07-05T17:02:22;29.90;66.60
38604;DHT22;24924;50.054;8.790;2022-07-05T17:04:48;30.40;66.60
38604;DHT22;24924;50.054;8.790;2022-07-05T17:07:14;31.30;65.00
38604;DHT22;24924;50.054;8.790;2022-07-05T17:09:40;31.80;64.40
38604;DHT22;24924;50.054;8.790;2022-07-05T17:12:06;31.60;63.40
38604;DHT22;24924;50.054;8.790;2022-07-05T17:14:32;32.00;64.80
38604;DHT22;24924;50.054;8.790;2022-07-05T17:16:57;31.90;63.80
38604;DHT22;24924;50.054;8.790;2022-07-05T17:19:23;31.30;64.00
38604;DHT22;24924;50.054;8.790;2022-07-05T17:21:49;30.40;67.40
38604;DHT22;24924;50.054;8.790;2022-07-05T17:24:15;29.60;66.40
38604;DHT22;24924;50.054;8.790;2022-07-05T17:26:41;29.10;69.40
38604;DHT22;24924;50.054;8.790;2022-07-05T17:29:07;29.00;69.50
38604;DHT22;24924;50.054;8.790;2022-07-05T17:31:33;28.60;69.40
38604;DHT22;24924;50.054;8.790;2022-07-05T17:33:58;28.70;68.70
38604;DHT22;24924;50.054;8.790;2022-07-05T17:36:26;28.20;69.60
38604;DHT22;24924;50.054;8.790;2022-07-05T17:38:51;27.70;69.10
38604;DHT22;24924;50.054;8.790;2022-07-05T17:41:17;27.30;70.70
38604;DHT22;24924;50.054;8.790;2022-07-05T17:43:45;27.20;72.10
38604;DHT22;24924;50.054;8.790;2022-07-05T17:46:12;27.30;70.20
38604;DHT22;24924;50.054;8.790;2022-07-05T17:48:38;27.00;70.20
38604;DHT22;24924;50.054;8.790;2022-07-05T17:51:04;26.70;71.50
38604;DHT22;24924;50.054;8.790;2022-07-05T17:53:30;26.60;71.00
38604;DHT22;24924;50.054;8.790;2022-07-05T17:55:55;26.40;75.80
38604;DHT22;24924;50.054;8.790;2022-07-05T17:58:21;26.20;74.70
38604;DHT22;24924;50.054;8.790;2022-07-05T18:00:49;25.90;75.30
38604;DHT22;24924;50.054;8.790;2022-07-05T18:03:16;25.90;75.20
38604;DHT22;24924;50.054;8.790;2022-07-05T18:05:42;25.60;81.10
38604;DHT22;24924;50.054;8.790;2022-07-05T18:08:08;25.40;75.80
38604;DHT22;24924;50.054;8.790;2022-07-05T18:10:34;25.50;75.70
38604;DHT22;24924;50.054;8.790;2022-07-05T18:12:59;25.30;78.00
38604;DHT22;24924;50.054;8.790;2022-07-05T18:15:25;25.10;78.40
38604;DHT22;24924;50.054;8.790;2022-07-05T18:17:51;25.20;77.20
38604;DHT22;24924;50.054;8.790;2022-07-05T18:20:16;25.10;76.40
38604;DHT22;24924;50.054;8.790;2022-07-05T18:22:42;24.90;75.40
38604;DHT22;24924;50.054;8.790;2022-07-05T18:25:08;24.80;78.30
38604;DHT22;24924;50.054;8.790;2022-07-05T18:27:34;24.70;78.20
38604;DHT22;24924;50.054;8.790;2022-07-05T18:30:00;24.50;78.90
38604;DHT22;24924;50.054;8.790;2022-07-05T18:32:26;24.50;77.40
38604;DHT22;24924;50.054;8.790;2022-07-05T18:34:51;25.50;79.20
38604;DHT22;24924;50.054;8.790;2022-07-05T18:37:17;24.80;78.70
38604;DHT22;24924;50.054;8.790;2022-07-05T18:39:43;24.40;75.70
38604;DHT22;24924;50.054;8.790;2022-07-05T18:42:09;24.20;79.30
38604;DHT22;24924;50.054;8.790;2022-07-05T18:44:34;24.10;80.60
38604;DHT22;24924;50.054;8.790;2022-07-05T18:47:00;24.40;78.10
38604;DHT22;24924;50.054;8.790;2022-07-05T18:49:27;24.20;76.60
38604;DHT22;24924;50.054;8.790;2022-07-05T18:51:52;23.90;79.50
38604;DHT22;24924;50.054;8.790;2022-07-05T18:54:18;23.70;82.00
38604;DHT22;24924;50.054;8.790;2022-07-05T18:56:44;23.60;82.40
38604;DHT22;24924;50.054;8.790;2022-07-05T18:59:09;23.30;80.80
38604;DHT22;24924;50.054;8.790;2022-07-05T19:01:35;23.60;81.90
38604;DHT22;24924;50.054;8.790;2022-07-05T19:04:01;23.50;82.30
38604;DHT22;24924;50.054;8.790;2022-07-05T19:06:28;23.50;80.40
38604;DHT22;24924;50.054;8.790;2022-07-05T19:09:13;23.40;82.10
38604;DHT22;24924;50.054;8.790;2022-07-05T19:11:58;23.30;86.70
38604;DHT22;24924;50.054;8.790;2022-07-05T19:14:42;23.40;79.70
38604;DHT22;24924;50.054;8.790;2022-07-05T19:17:07;23.10;82.50
38604;DHT22;24924;50.054;8.790;2022-07-05T19:19:33;23.10;86.00
38604;DHT22;24924;50.054;8.790;2022-07-05T19:21:59;23.10;86.20
38604;DHT22;24924;50.054;8.790;2022-07-05T19:24:25;23.10;83.50
38604;DHT22;24924;50.054;8.790;2022-07-05T19:26:50;23.00;85.50
38604;DHT22;24924;50.054;8.790;2022-07-05T19:29:16;23.00;83.80
38604;DHT22;24924;50.054;8.790;2022-07-05T19:31:42;23.10;82.70
38604;DHT22;24924;50.054;8.790;2022-07-05T19:34:08;23.00;79.70
38604;DHT22;24924;50.054;8.790;2022-07-05T19:36:34;23.10;81.10
38604;DHT22;24924;50.054;8.790;2022-07-05T19:39:00;23.00;80.20
38604;DHT22;24924;50.054;8.790;2022-07-05T19:41:26;22.90;80.70
38604;DHT22;24924;50.054;8.790;2022-07-05T19:43:52;23.00;78.40
38604;DHT22;24924;50.054;8.790;2022-07-05T19:46:17;23.00;80.10
38604;DHT22;24924;50.054;8.790;2022-07-05T19:48:43;22.90;81.70
38604;DHT22;24924;50.054;8.790;2022-07-05T19:51:10;22.70;82.00
38604;DHT22;24924;50.054;8.790;2022-07-05T19:53:36;22.90;77.70
38604;DHT22;24924;50.054;8.790;2022-07-05T19:56:01;22.90;82.10
38604;DHT22;24924;50.054;8.790;2022-07-05T19:58:29;22.80;78.60
38604;DHT22;24924;50.054;8.790;2022-07-05T20:00:55;22.70;78.60
38604;DHT22;24924;50.054;8.790;2022-07-05T20:03:21;22.70;78.40
38604;DHT22;24924;50.054;8.790;2022-07-05T20:09:40;22.50;78.70
38604;DHT22;24924;50.054;8.790;2022-07-05T20:12:05;22.40;80.40
38604;DHT22;24924;50.054;8.790;2022-07-05T20:14:31;22.20;84.70
38604;DHT22;24924;50.054;8.790;2022-07-05T20:17:00;22.10;84.90
38604;DHT22;24924;50.054;8.790;2022-07-05T20:19:25;22.20;84.50
38604;DHT22;24924;50.054;8.790;2022-07-05T20:21:51;22.30;80.80
38604;DHT22;24924;50.054;8.790;2022-07-05T20:24:17;22.40;81.70
38604;DHT22;24924;50.054;8.790;2022-07-05T20:26:43;22.30;81.40
38604;DHT22;24924;50.054;8.790;2022-07-05T20:29:09;22.10;81.60
38604;DHT22;24924;50.054;8.790;2022-07-05T20:31:35;22.00;83.70
38604;DHT22;24924;50.054;8.790;2022-07-05T20:34:01;22.10;84.00
38604;DHT22;24924;50.054;8.790;2022-07-05T20:36:27;21.80;86.70
38604;DHT22;24924;50.054;8.790;2022-07-05T20:38:53;21.90;85.30
38604;DHT22;24924;50.054;8.790;2022-07-05T20:41:20;21.90;88.30
38604;DHT22;24924;50.054;8.790;2022-07-05T20:43:46;21.80;84.10
38604;DHT22;24924;50.054;8.790;2022-07-05T20:46:11;21.80;86.30
38604;DHT22;24924;50.054;8.790;2022-07-05T20:48:37;21.80;82.40
38604;DHT22;24924;50.054;8.790;2022-07-05T20:51:03;21.70;83.50
38604;DHT22;24924;50.054;8.790;2022-07-05T20:53:29;21.60;84.30
38604;DHT22;24924;50.054;8.790;2022-07-05T20:55:55;21.50;87.10
38604;DHT22;24924;50.054;8.790;2022-07-05T20:58:21;21.60;82.90
38604;DHT22;24924;50.054;8.790;2022-07-05T21:00:48;21.50;84.40
38604;DHT22;24924;50.054;8.790;2022-07-05T21:03:14;21.40;87.60
38604;DHT22;24924;50.054;8.790;2022-07-05T21:05:40;21.30;87.40
38604;DHT22;24924;50.054;8.790;2022-07-05T21:08:06;21.20;87.70
38604;DHT22;24924;50.054;8.790;2022-07-05T21:10:31;21.10;90.20
38604;DHT22;24924;50.054;8.790;2022-07-05T21:12:57;21.00;86.80
38604;DHT22;24924;50.054;8.790;2022-07-05T21:15:23;20.90;87.70
38604;DHT22;24924;50.054;8.790;2022-07-05T21:17:49;20.90;87.60